Date,TemperatureHighF,TemperatureAvgF,TemperatureLowF,DewpointHighF,DewpointAvgF,DewpointLowF,HumidityHigh,HumidityAvg,HumidityLow,PressureMaxIn,PressureMinIn,WindSpeedMaxMPH,WindSpeedAvgMPH,GustSpeedMaxMPH,PrecipitationSumIn
2013-8-1,85.5,75.4,63.5,32.0,32.0,32.0,22,10,8,30.78,30.69,12,6,15,0.00
2013-8-2,82.8,73.3,64.4,32.0,32.0,32.0,12,10,8,30.75,30.69,17,8,21,0.00
2013-8-3,84.7,74.0,64.2,35.6,32.0,32.0,28,11,8,30.75,30.72,17,9,22,0.00
2013-8-4,87.4,76.5,64.4,32.0,32.0,32.0,11,9,8,30.78,30.72,17,10,21,0.00
2013-8-5,87.4,76.4,65.1,32.0,32.0,32.0,10,9,8,30.78,30.72,19,10,23,0.00
2013-8-6,84.0,74.0,65.5,32.0,32.0,32.0,13,9,7,30.81,30.72,17,11,24,0.00
2013-8-7,81.9,71.3,62.8,32.0,32.0,32.0,20,10,8,30.81,30.75,16,9,20,0.00
2013-8-8,81.7,70.4,63.3,32.0,32.0,32.0,30,13,8,30.75,30.69,15,8,21,0.00
2013-8-9,80.8,70.7,63.0,32.0,32.0,32.0,21,10,8,30.75,30.66,17,9,23,0.00
2013-8-10,81.0,71.8,63.7,32.0,32.0,32.0,15,11,8,30.78,30.72,15,7,18,0.00
2013-8-11,86.7,74.2,63.0,32.0,32.0,32.0,13,11,8,30.75,30.69,16,7,17,0.00
2013-8-12,85.8,80.4,66.0,32.0,32.0,32.0,12,9,8,30.75,30.69,12,6,13,0.00
2013-8-13,94.5,86.0,70.2,32.0,32.0,32.0,10,8,6,30.78,30.72,11,5,13,0.00
2013-8-14,95.0,83.0,72.7,32.0,32.0,32.0,10,8,6,30.75,30.69,13,4,15,0.00
2013-8-15,95.0,82.9,73.0,32.0,32.0,32.0,10,8,6,30.78,30.72,15,5,19,0.00
2013-8-25,87.6,80.5,72.7,32.0,32.0,32.0,10,8,8,30.75,30.69,15,9,18,0.00
2013-8-26,88.2,75.4,66.4,84.2,39.3,32.0,92,24,8,30.78,30.69,17,3,21,1.16
2013-8-27,87.1,77.0,70.0,71.6,49.2,33.8,83,42,16,30.72,30.63,15,3,18,0.00
2013-8-28,89.6,79.1,71.1,50.0,37.7,32.0,44,22,7,30.75,30.66,15,5,18,0.00
2013-8-29,94.8,82.7,71.8,32.0,32.0,32.0,13,9,6,30.81,30.72,15,6,17,0.00
2013-8-30,90.5,81.0,73.4,57.2,38.9,32.0,51,21,8,30.84,30.75,18,7,23,0.00
2013-8-31,86.5,78.9,75.4,66.2,54.4,39.2,72,45,22,30.81,30.72,17,11,23,0.00